CEB316 RPLL-RPLK
Flight info
| Callsign | CEB316 |
|---|---|
| Flight time | 0h 38m |
| Altitude | 24000 |
| Route | TIMON2R TIMON W15 RAGAY RAGAY1B |
| Aircraft | A21N/M-SDE2E3FGHIRWXY/LB1 |
Departure
| Time | 2026-05-05 04:05 |
|---|---|
| Airport | Ninoy Aquino International Airport (RPLL) |
Arrival
| Time | 2026-05-05 04:43 |
|---|---|
| Airport | Bicol International Airport (RPLK) |
| Time | Latitude | Longitude | Altitude | Speed | Heading |
|---|---|---|---|---|---|
| 2026-05-05 03:37 | 14.51649 | 121.01720 | 64 ft | 0 kts | 225° |
| 2026-05-05 03:50 | 14.51663 | 121.01735 | 61 ft | 4 kts | 225° |
| 2026-05-05 03:51 | 14.51682 | 121.01755 | 65 ft | 4 kts | 231° |
| 2026-05-05 03:51 | 14.51696 | 121.01773 | 66 ft | 4 kts | 185° |
| 2026-05-05 03:51 | 14.51697 | 121.01773 | 66 ft | 4 kts | 142° |
| 2026-05-05 03:51 | 14.51712 | 121.01761 | 64 ft | 0 kts | 142° |
| 2026-05-05 03:55 | 14.51694 | 121.01775 | 71 ft | 4 kts | 149° |
| 2026-05-05 03:56 | 14.51656 | 121.01787 | 63 ft | 7 kts | 181° |
| 2026-05-05 03:56 | 14.51614 | 121.01763 | 72 ft | 8 kts | 219° |
| 2026-05-05 03:56 | 14.51562 | 121.01714 | 63 ft | 12 kts | 224° |
| 2026-05-05 03:56 | 14.51491 | 121.01643 | 68 ft | 16 kts | 224° |
| 2026-05-05 03:57 | 14.51402 | 121.01572 | 70 ft | 14 kts | 205° |
| 2026-05-05 03:57 | 14.51360 | 121.01584 | 64 ft | 7 kts | 134° |
| 2026-05-05 03:57 | 14.51318 | 121.01629 | 67 ft | 11 kts | 134° |
| 2026-05-05 03:57 | 14.51255 | 121.01694 | 69 ft | 14 kts | 135° |
| 2026-05-05 03:58 | 14.51177 | 121.01773 | 69 ft | 17 kts | 135° |
| 2026-05-05 03:58 | 14.51106 | 121.01846 | 69 ft | 12 kts | 135° |
| 2026-05-05 03:58 | 14.51042 | 121.01837 | 67 ft | 11 kts | 234° |
| 2026-05-05 03:58 | 14.50996 | 121.01755 | 68 ft | 16 kts | 240° |
| 2026-05-05 03:59 | 14.50933 | 121.01644 | 70 ft | 20 kts | 239° |
| 2026-05-05 03:59 | 14.50860 | 121.01512 | 64 ft | 21 kts | 242° |
| 2026-05-05 03:59 | 14.50783 | 121.01374 | 66 ft | 23 kts | 241° |
| 2026-05-05 03:59 | 14.50727 | 121.01314 | 65 ft | 9 kts | 187° |
| 2026-05-05 04:00 | 14.50658 | 121.01309 | 68 ft | 4 kts | 218° |
| 2026-05-05 04:00 | 14.50637 | 121.01255 | 65 ft | 21 kts | 246° |
| 2026-05-05 04:00 | 14.50545 | 121.01101 | 69 ft | 27 kts | 238° |
| 2026-05-05 04:00 | 14.50448 | 121.00922 | 66 ft | 30 kts | 241° |
| 2026-05-05 04:01 | 14.50343 | 121.00733 | 69 ft | 21 kts | 239° |
| 2026-05-05 04:01 | 14.50285 | 121.00629 | 63 ft | 14 kts | 243° |
| 2026-05-05 04:01 | 14.50235 | 121.00529 | 71 ft | 17 kts | 239° |
| 2026-05-05 04:01 | 14.50182 | 121.00454 | 62 ft | 13 kts | 242° |
| 2026-05-05 04:02 | 14.50133 | 121.00358 | 66 ft | 17 kts | 242° |
| 2026-05-05 04:02 | 14.50071 | 121.00241 | 69 ft | 20 kts | 240° |
| 2026-05-05 04:02 | 14.49993 | 121.00104 | 64 ft | 24 kts | 239° |
| 2026-05-05 04:02 | 14.49921 | 120.99977 | 64 ft | 18 kts | 235° |
| 2026-05-05 04:03 | 14.49872 | 120.99961 | 66 ft | 4 kts | 146° |
| 2026-05-05 04:03 | 14.49834 | 120.99987 | 72 ft | 8 kts | 150° |
| 2026-05-05 04:03 | 14.49799 | 121.00036 | 70 ft | 9 kts | 88° |
| 2026-05-05 04:03 | 14.49828 | 121.00085 | 72 ft | 9 kts | 59° |
| 2026-05-05 04:04 | 14.49860 | 121.00143 | 63 ft | 0 kts | 60° |
| 2026-05-05 04:04 | 14.49889 | 121.00194 | 70 ft | 35 kts | 60° |
| 2026-05-05 04:04 | 14.50137 | 121.00643 | 63 ft | 108 kts | 61° |
| 2026-05-05 04:04 | 14.50623 | 121.01513 | 151 ft | 164 kts | 60° |
| 2026-05-05 04:05 | 14.51214 | 121.02547 | 814 ft | 171 kts | 61° |
| 2026-05-05 04:05 | 14.51794 | 121.03597 | 1696 ft | 170 kts | 63° |
| 2026-05-05 04:05 | 14.52433 | 121.04767 | 2189 ft | 207 kts | 62° |
| 2026-05-05 04:05 | 14.53203 | 121.06172 | 2656 ft | 240 kts | 62° |
| 2026-05-05 04:06 | 14.54057 | 121.07714 | 3452 ft | 252 kts | 62° |
| 2026-05-05 04:06 | 14.54935 | 121.09295 | 4497 ft | 256 kts | 62° |
| 2026-05-05 04:06 | 14.55825 | 121.10899 | 5573 ft | 258 kts | 62° |
| 2026-05-05 04:06 | 14.56495 | 121.12108 | 6356 ft | 262 kts | 63° |
| 2026-05-05 04:07 | 14.56965 | 121.13097 | 6904 ft | 264 kts | 70° |
| 2026-05-05 04:07 | 14.57350 | 121.14543 | 7654 ft | 267 kts | 81° |
| 2026-05-05 04:07 | 14.57604 | 121.16341 | 8527 ft | 272 kts | 85° |
| 2026-05-05 04:07 | 14.57887 | 121.18947 | 9767 ft | 280 kts | 85° |
| 2026-05-05 04:08 | 14.58104 | 121.20981 | 10476 ft | 294 kts | 85° |
| 2026-05-05 04:08 | 14.58254 | 121.22405 | 10713 ft | 310 kts | 86° |
| 2026-05-05 04:08 | 14.58283 | 121.23970 | 11018 ft | 321 kts | 96° |
| 2026-05-05 04:08 | 14.57987 | 121.25482 | 11439 ft | 325 kts | 110° |
| 2026-05-05 04:09 | 14.56307 | 121.28069 | 12497 ft | 332 kts | 136° |
| 2026-05-05 04:09 | 14.54495 | 121.29579 | 13284 ft | 337 kts | 142° |
| 2026-05-05 04:09 | 14.52602 | 121.31008 | 13953 ft | 345 kts | 143° |
| 2026-05-05 04:09 | 14.50656 | 121.32465 | 14716 ft | 347 kts | 143° |
| 2026-05-05 04:10 | 14.48698 | 121.33941 | 15429 ft | 353 kts | 143° |
| 2026-05-05 04:10 | 14.46700 | 121.35456 | 16080 ft | 359 kts | 143° |
| 2026-05-05 04:10 | 14.45369 | 121.36470 | 16600 ft | 361 kts | 143° |
| 2026-05-05 04:10 | 14.42635 | 121.38557 | 17469 ft | 369 kts | 143° |
| 2026-05-05 04:11 | 14.40566 | 121.40138 | 18237 ft | 371 kts | 143° |
| 2026-05-05 04:11 | 14.38509 | 121.41711 | 18791 ft | 376 kts | 143° |
| 2026-05-05 04:11 | 14.36404 | 121.43322 | 19353 ft | 379 kts | 143° |
| 2026-05-05 04:11 | 14.34278 | 121.44948 | 19922 ft | 381 kts | 143° |
| 2026-05-05 04:12 | 14.32138 | 121.46585 | 20402 ft | 386 kts | 143° |
| 2026-05-05 04:12 | 14.30705 | 121.47681 | 20774 ft | 388 kts | 143° |
| 2026-05-05 04:12 | 14.27785 | 121.49915 | 21424 ft | 394 kts | 143° |
| 2026-05-05 04:12 | 14.25571 | 121.51606 | 22005 ft | 396 kts | 144° |
| 2026-05-05 04:13 | 14.23356 | 121.53296 | 22574 ft | 399 kts | 144° |
| 2026-05-05 04:13 | 14.21124 | 121.54999 | 23193 ft | 399 kts | 144° |
| 2026-05-05 04:13 | 14.18883 | 121.56708 | 23709 ft | 402 kts | 144° |
| 2026-05-05 04:13 | 14.16623 | 121.58432 | 23945 ft | 406 kts | 144° |
| 2026-05-05 04:14 | 14.14380 | 121.60143 | 23990 ft | 407 kts | 144° |
| 2026-05-05 04:14 | 14.12857 | 121.61339 | 24005 ft | 409 kts | 141° |
| 2026-05-05 04:14 | 14.10341 | 121.64223 | 23993 ft | 411 kts | 122° |
| 2026-05-05 04:14 | 14.09210 | 121.66918 | 23995 ft | 413 kts | 106° |
| 2026-05-05 04:15 | 14.08651 | 121.69822 | 23998 ft | 414 kts | 100° |
| 2026-05-05 04:15 | 14.08372 | 121.71765 | 23995 ft | 415 kts | 99° |
| 2026-05-05 04:15 | 14.07841 | 121.75702 | 24000 ft | 415 kts | 99° |
| 2026-05-05 04:15 | 14.07443 | 121.78599 | 23992 ft | 415 kts | 99° |
| 2026-05-05 04:16 | 14.07032 | 121.81545 | 23995 ft | 415 kts | 100° |
| 2026-05-05 04:16 | 14.06618 | 121.84478 | 23994 ft | 413 kts | 99° |
| 2026-05-05 04:16 | 14.06201 | 121.87406 | 23995 ft | 413 kts | 99° |
| 2026-05-05 04:16 | 14.05782 | 121.90335 | 23993 ft | 413 kts | 99° |
| 2026-05-05 04:17 | 14.05260 | 121.93238 | 23993 ft | 412 kts | 107° |
| 2026-05-05 04:17 | 14.04289 | 121.96004 | 23992 ft | 411 kts | 114° |
| 2026-05-05 04:17 | 14.03094 | 121.98679 | 23989 ft | 411 kts | 117° |
| 2026-05-05 04:17 | 14.01796 | 122.01292 | 23998 ft | 410 kts | 119° |
| 2026-05-05 04:18 | 14.00455 | 122.03881 | 23988 ft | 410 kts | 119° |
| 2026-05-05 04:18 | 13.99103 | 122.06471 | 24000 ft | 411 kts | 119° |
| 2026-05-05 04:18 | 13.97778 | 122.09028 | 23984 ft | 411 kts | 119° |
| 2026-05-05 04:18 | 13.96445 | 122.11632 | 23917 ft | 410 kts | 118° |
| 2026-05-05 04:19 | 13.95130 | 122.14229 | 23906 ft | 410 kts | 118° |
| 2026-05-05 04:19 | 13.93815 | 122.16844 | 23905 ft | 410 kts | 118° |
| 2026-05-05 04:19 | 13.92510 | 122.19453 | 23903 ft | 410 kts | 118° |
| 2026-05-05 04:19 | 13.91205 | 122.22062 | 23904 ft | 410 kts | 118° |
| 2026-05-05 04:20 | 13.89901 | 122.24671 | 23903 ft | 410 kts | 118° |
| 2026-05-05 04:20 | 13.88610 | 122.27251 | 23902 ft | 410 kts | 118° |
| 2026-05-05 04:20 | 13.87303 | 122.29861 | 23902 ft | 410 kts | 118° |
| 2026-05-05 04:20 | 13.85996 | 122.32468 | 23903 ft | 410 kts | 118° |
| 2026-05-05 04:21 | 13.84687 | 122.35078 | 23901 ft | 411 kts | 118° |
| 2026-05-05 04:21 | 13.83376 | 122.37691 | 23903 ft | 410 kts | 118° |
| 2026-05-05 04:21 | 13.82072 | 122.40289 | 23903 ft | 409 kts | 118° |
| 2026-05-05 04:21 | 13.80764 | 122.42895 | 23906 ft | 410 kts | 118° |
| 2026-05-05 04:22 | 13.79457 | 122.45498 | 23902 ft | 410 kts | 118° |
| 2026-05-05 04:22 | 13.78147 | 122.48105 | 23902 ft | 409 kts | 118° |
| 2026-05-05 04:22 | 13.76859 | 122.50669 | 23902 ft | 409 kts | 118° |
| 2026-05-05 04:22 | 13.75552 | 122.53269 | 23900 ft | 410 kts | 118° |
| 2026-05-05 04:23 | 13.74215 | 122.55848 | 23900 ft | 410 kts | 120° |
| 2026-05-05 04:23 | 13.72793 | 122.58400 | 23897 ft | 409 kts | 121° |
| 2026-05-05 04:23 | 13.71304 | 122.60870 | 23745 ft | 404 kts | 123° |
| 2026-05-05 04:23 | 13.69759 | 122.63261 | 23319 ft | 396 kts | 124° |
| 2026-05-05 04:24 | 13.68237 | 122.65561 | 23053 ft | 382 kts | 124° |
| 2026-05-05 04:24 | 13.66767 | 122.67775 | 22829 ft | 368 kts | 124° |
| 2026-05-05 04:24 | 13.65348 | 122.69911 | 22621 ft | 355 kts | 124° |
| 2026-05-05 04:25 | 13.62681 | 122.73928 | 22251 ft | 330 kts | 124° |
| 2026-05-05 04:25 | 13.61408 | 122.75844 | 22076 ft | 318 kts | 124° |
| 2026-05-05 04:25 | 13.60183 | 122.77691 | 21921 ft | 307 kts | 124° |
| 2026-05-05 04:25 | 13.59004 | 122.79467 | 21764 ft | 295 kts | 124° |
| 2026-05-05 04:26 | 13.57864 | 122.81183 | 21570 ft | 287 kts | 124° |
| 2026-05-05 04:26 | 13.56747 | 122.82865 | 20974 ft | 294 kts | 124° |
| 2026-05-05 04:26 | 13.55571 | 122.84634 | 20233 ft | 306 kts | 124° |
| 2026-05-05 04:26 | 13.54347 | 122.86477 | 19475 ft | 317 kts | 124° |
| 2026-05-05 04:27 | 13.53078 | 122.88385 | 18674 ft | 329 kts | 123° |
| 2026-05-05 04:27 | 13.51763 | 122.90364 | 17792 ft | 341 kts | 123° |
| 2026-05-05 04:27 | 13.50407 | 122.92404 | 16797 ft | 351 kts | 123° |
| 2026-05-05 04:27 | 13.49010 | 122.94505 | 15770 ft | 361 kts | 124° |
| 2026-05-05 04:28 | 13.47571 | 122.96668 | 14713 ft | 371 kts | 124° |
| 2026-05-05 04:28 | 13.46096 | 122.98885 | 13603 ft | 380 kts | 124° |
| 2026-05-05 04:28 | 13.44610 | 123.01117 | 12522 ft | 385 kts | 124° |
| 2026-05-05 04:28 | 13.43121 | 123.03352 | 12039 ft | 371 kts | 124° |
| 2026-05-05 04:29 | 13.41703 | 123.05479 | 11704 ft | 354 kts | 123° |
| 2026-05-05 04:29 | 13.40340 | 123.07524 | 11349 ft | 340 kts | 123° |
| 2026-05-05 04:29 | 13.39033 | 123.09486 | 11153 ft | 322 kts | 123° |
| 2026-05-05 04:29 | 13.37810 | 123.11319 | 11110 ft | 301 kts | 123° |
| 2026-05-05 04:30 | 13.36646 | 123.13066 | 10761 ft | 294 kts | 123° |
| 2026-05-05 04:30 | 13.35494 | 123.14796 | 10261 ft | 293 kts | 123° |
| 2026-05-05 04:30 | 13.34366 | 123.16489 | 9831 ft | 290 kts | 123° |
| 2026-05-05 04:30 | 13.33231 | 123.18192 | 9283 ft | 288 kts | 123° |
| 2026-05-05 04:31 | 13.32104 | 123.19882 | 8800 ft | 284 kts | 123° |
| 2026-05-05 04:31 | 13.30994 | 123.21547 | 8288 ft | 283 kts | 123° |
| 2026-05-05 04:31 | 13.29885 | 123.23209 | 7779 ft | 281 kts | 123° |
| 2026-05-05 04:31 | 13.28788 | 123.24853 | 7289 ft | 279 kts | 122° |
| 2026-05-05 04:32 | 13.27696 | 123.26489 | 6768 ft | 277 kts | 122° |
| 2026-05-05 04:32 | 13.26612 | 123.28113 | 6352 ft | 273 kts | 123° |
| 2026-05-05 04:32 | 13.25545 | 123.29710 | 5856 ft | 270 kts | 122° |
| 2026-05-05 04:32 | 13.24483 | 123.31299 | 5336 ft | 269 kts | 122° |
| 2026-05-05 04:33 | 13.23450 | 123.32846 | 4947 ft | 263 kts | 123° |
| 2026-05-05 04:33 | 13.22425 | 123.34379 | 4687 ft | 259 kts | 123° |
| 2026-05-05 04:33 | 13.21403 | 123.35908 | 4558 ft | 262 kts | 123° |
| 2026-05-05 04:33 | 13.20446 | 123.37500 | 4394 ft | 261 kts | 110° |
| 2026-05-05 04:34 | 13.20299 | 123.39283 | 4255 ft | 247 kts | 81° |
| 2026-05-05 04:34 | 13.20662 | 123.40948 | 4139 ft | 232 kts | 77° |
| 2026-05-05 04:34 | 13.21059 | 123.42508 | 4014 ft | 220 kts | 76° |
| 2026-05-05 04:34 | 13.21440 | 123.43986 | 3897 ft | 211 kts | 75° |
| 2026-05-05 04:35 | 13.21675 | 123.44951 | 3819 ft | 210 kts | 78° |
| 2026-05-05 04:35 | 13.21821 | 123.46432 | 3691 ft | 210 kts | 91° |
| 2026-05-05 04:35 | 13.21532 | 123.48391 | 3542 ft | 211 kts | 105° |
| 2026-05-05 04:35 | 13.21228 | 123.49362 | 3467 ft | 211 kts | 109° |
| 2026-05-05 04:36 | 13.20463 | 123.51195 | 3311 ft | 211 kts | 114° |
| 2026-05-05 04:36 | 13.20037 | 123.52077 | 3231 ft | 208 kts | 115° |
| 2026-05-05 04:36 | 13.19123 | 123.53833 | 3068 ft | 209 kts | 117° |
| 2026-05-05 04:36 | 13.18656 | 123.54696 | 2988 ft | 209 kts | 118° |
| 2026-05-05 04:37 | 13.17686 | 123.56446 | 2798 ft | 212 kts | 117° |
| 2026-05-05 04:37 | 13.16963 | 123.57741 | 2688 ft | 204 kts | 117° |
| 2026-05-05 04:37 | 13.16283 | 123.58946 | 2628 ft | 193 kts | 118° |
| 2026-05-05 04:37 | 13.15615 | 123.60123 | 2564 ft | 190 kts | 118° |
| 2026-05-05 04:38 | 13.14964 | 123.61276 | 2416 ft | 180 kts | 118° |
| 2026-05-05 04:38 | 13.14332 | 123.62323 | 2349 ft | 165 kts | 124° |
| 2026-05-05 04:38 | 13.13606 | 123.63183 | 2212 ft | 155 kts | 136° |
| 2026-05-05 04:38 | 13.12753 | 123.63836 | 1907 ft | 153 kts | 146° |
| 2026-05-05 04:39 | 13.11783 | 123.64271 | 1657 ft | 152 kts | 159° |
| 2026-05-05 04:39 | 13.11096 | 123.64434 | 1453 ft | 153 kts | 168° |
| 2026-05-05 04:39 | 13.10029 | 123.64478 | 1112 ft | 155 kts | 182° |
| 2026-05-05 04:39 | 13.08968 | 123.64272 | 812 ft | 155 kts | 194° |
| 2026-05-05 04:40 | 13.07733 | 123.63548 | 915 ft | 167 kts | 221° |
| 2026-05-05 04:40 | 13.07134 | 123.62985 | 1362 ft | 180 kts | 220° |
| 2026-05-05 04:40 | 13.05616 | 123.62257 | 2100 ft | 189 kts | 174° |
| 2026-05-05 04:40 | 13.04794 | 123.62486 | 2278 ft | 182 kts | 145° |
| 2026-05-05 04:41 | 13.04086 | 123.63815 | 1819 ft | 161 kts | 84° |
| 2026-05-05 04:41 | 13.04649 | 123.64834 | 1271 ft | 177 kts | 39° |
| 2026-05-05 04:41 | 13.05419 | 123.65157 | 1236 ft | 189 kts | 9° |
| 2026-05-05 04:41 | 13.07060 | 123.64711 | 1369 ft | 169 kts | 345° |
| 2026-05-05 04:42 | 13.08106 | 123.64636 | 1240 ft | 142 kts | 22° |
| 2026-05-05 04:42 | 13.08890 | 123.65183 | 901 ft | 138 kts | 44° |
| 2026-05-05 04:42 | 13.09552 | 123.65882 | 629 ft | 133 kts | 48° |
| 2026-05-05 04:42 | 13.10163 | 123.66552 | 469 ft | 128 kts | 48° |
| 2026-05-05 04:43 | 13.10763 | 123.67213 | 356 ft | 125 kts | 49° |
| 2026-05-05 04:43 | 13.11317 | 123.67823 | 299 ft | 97 kts | 47° |
| 2026-05-05 04:43 | 13.11647 | 123.68192 | 306 ft | 51 kts | 46° |
| 2026-05-05 04:43 | 13.11853 | 123.68415 | 305 ft | 40 kts | 46° |
| 2026-05-05 04:44 | 13.11975 | 123.68589 | 304 ft | 18 kts | 89° |
| 2026-05-05 04:44 | 13.11997 | 123.68631 | 305 ft | 3 kts | 359° |
| 2026-05-05 04:44 | 13.11999 | 123.68597 | 304 ft | 9 kts | 236° |
| 2026-05-05 04:44 | 13.11953 | 123.68534 | 304 ft | 23 kts | 236° |
| 2026-05-05 04:45 | 13.11825 | 123.68379 | 308 ft | 30 kts | 226° |
| 2026-05-05 04:45 | 13.11677 | 123.68214 | 305 ft | 33 kts | 227° |
| 2026-05-05 04:45 | 13.11541 | 123.68065 | 299 ft | 23 kts | 227° |
| 2026-05-05 04:45 | 13.11440 | 123.68056 | 299 ft | 13 kts | 135° |
| 2026-05-05 04:46 | 13.11382 | 123.68098 | 299 ft | 8 kts | 171° |
| 2026-05-05 04:46 | 13.11331 | 123.68082 | 301 ft | 8 kts | 209° |
| 2026-05-05 04:46 | 13.11284 | 123.68064 | 301 ft | 8 kts | 163° |
| 2026-05-05 04:46 | 13.11241 | 123.68100 | 299 ft | 6 kts | 137° |
| 2026-05-05 04:47 | 13.11237 | 123.68104 | 302 ft | 0 kts | 137° |